マドリード/バラハス の空港の天気 - METARとTAF

マドリード・バラハス国際空港 ( LEMD / MAD ) - スペイン マドリード
飛行場実況気象(Metar)
観測時間01/20 05:30 CET (01/20 04:30 UTC)
風向・風速不定 1m/s
視程10km以上
天気現象
なし
気温1℃
湿度100%
気圧1025hPa
METARLEMD 200430Z VRB01KT CAVOK 01/01 Q1025 NOSIG
過去の天気等 Google飛行場航空写真 Wunderground天気予報

過去48時間のMETAR

飛行場予報(TAF)
発表時間: 1/20 00:00 CET (1/19 23:00 UTC)
予報対象時間: 20日1時 CET ~ 21日7時 CET
風向・風速不定 3m/s
視程10km以上
なし
20日5時 CET ~ 20日10時 CET に 確率 30% で一時的に
視程3,000m
天気現象もや
なし
20日13時 CET ~ 20日20時 CET に 確率 40% で一時的に
風向・風速西南西 5m/s
TAF LEMD 192300Z 2000/2106 VRB05KT CAVOK TX16/2015Z TNM01/2006Z
PROB30 TEMPO 2004/2009 3000 BR NSC
PROB40 TEMPO 2012/2019 25010KT